sensor_id;sensor_type;location;lat;lon;timestamp;pressure;altitude;pressure_sealevel;temperature;humidity
5574;BME280;2563;52.242;7.956;2023-01-23T00:02:14;98738.31;;;1.55;100.00
5574;BME280;2563;52.242;7.956;2023-01-23T00:04:39;98746.78;;;1.54;100.00
5574;BME280;2563;52.242;7.956;2023-01-23T00:07:05;98751.88;;;1.54;100.00
5574;BME280;2563;52.242;7.956;2023-01-23T00:09:30;98749.28;;;1.55;100.00
5574;BME280;2563;52.242;7.956;2023-01-23T00:11:56;98753.53;;;1.55;100.00
5574;BME280;2563;52.242;7.956;2023-01-23T00:14:21;98758.59;;;1.55;100.00
5574;BME280;2563;52.242;7.956;2023-01-23T00:16:47;98752.69;;;1.54;100.00
5574;BME280;2563;52.242;7.956;2023-01-23T00:19:12;98762.00;;;1.54;100.00
5574;BME280;2563;52.242;7.956;2023-01-23T00:21:37;98759.44;;;1.55;100.00
5574;BME280;2563;52.242;7.956;2023-01-23T00:24:03;98754.34;;;1.55;100.00
5574;BME280;2563;52.242;7.956;2023-01-23T00:26:30;98755.22;;;1.56;100.00
5574;BME280;2563;52.242;7.956;2023-01-23T00:28:57;98754.34;;;1.55;100.00
5574;BME280;2563;52.242;7.956;2023-01-23T00:31:25;98753.53;;;1.55;100.00
5574;BME280;2563;52.242;7.956;2023-01-23T00:33:57;98743.38;;;1.55;100.00
5574;BME280;2563;52.242;7.956;2023-01-23T00:36:24;98753.53;;;1.55;100.00
5574;BME280;2563;52.242;7.956;2023-01-23T00:38:51;98756.94;;;1.54;100.00
5574;BME280;2563;52.242;7.956;2023-01-23T00:41:17;98766.22;;;1.53;100.00
5574;BME280;2563;52.242;7.956;2023-01-23T00:43:42;98763.66;;;1.55;100.00
5574;BME280;2563;52.242;7.956;2023-01-23T00:46:07;98770.44;;;1.56;100.00
5574;BME280;2563;52.242;7.956;2023-01-23T00:48:33;98776.31;;;1.56;100.00
5574;BME280;2563;52.242;7.956;2023-01-23T00:50:58;98773.75;;;1.58;100.00
5574;BME280;2563;52.242;7.956;2023-01-23T00:53:23;98773.75;;;1.58;100.00
5574;BME280;2563;52.242;7.956;2023-01-23T00:55:49;98773.75;;;1.58;100.00
5574;BME280;2563;52.242;7.956;2023-01-23T00:58:14;98765.28;;;1.59;100.00
5574;BME280;2563;52.242;7.956;2023-01-23T01:00:40;98765.28;;;1.59;100.00
5574;BME280;2563;52.242;7.956;2023-01-23T01:03:06;98772.91;;;1.59;100.00
5574;BME280;2563;52.242;7.956;2023-01-23T01:05:32;98772.03;;;1.60;100.00
5574;BME280;2563;52.242;7.956;2023-01-23T01:07:58;98769.50;;;1.60;100.00
5574;BME280;2563;52.242;7.956;2023-01-23T01:10:23;98550.59;;;1.61;100.00
5574;BME280;2563;52.242;7.956;2023-01-23T01:12:54;98581.84;;;1.61;100.00
5574;BME280;2563;52.242;7.956;2023-01-23T01:15:19;98619.88;;;1.63;100.00
5574;BME280;2563;52.242;7.956;2023-01-23T01:17:45;98645.22;;;1.63;100.00
5574;BME280;2563;52.242;7.956;2023-01-23T01:20:10;98657.03;;;1.64;100.00
5574;BME280;2563;52.242;7.956;2023-01-23T01:22:36;98679.81;;;1.65;100.00
5574;BME280;2563;52.242;7.956;2023-01-23T01:25:01;98691.63;;;1.66;100.00
5574;BME280;2563;52.242;7.956;2023-01-23T01:27:27;98702.66;;;1.64;100.00
5574;BME280;2563;52.242;7.956;2023-01-23T01:29:52;98712.81;;;1.64;100.00
5574;BME280;2563;52.242;7.956;2023-01-23T01:32:18;98718.72;;;1.64;100.00
5574;BME280;2563;52.242;7.956;2023-01-23T01:34:43;98723.75;;;1.66;100.00
5574;BME280;2563;52.242;7.956;2023-01-23T01:37:09;98730.53;;;1.65;100.00
5574;BME280;2563;52.242;7.956;2023-01-23T01:39:34;98736.38;;;1.67;100.00
5574;BME280;2563;52.242;7.956;2023-01-23T01:41:59;98733.03;;;1.67;100.00
5574;BME280;2563;52.242;7.956;2023-01-23T01:44:25;98738.06;;;1.70;100.00
5574;BME280;2563;52.242;7.956;2023-01-23T01:46:50;98738.09;;;1.67;100.00
5574;BME280;2563;52.242;7.956;2023-01-23T01:49:20;98743.16;;;1.67;100.00
5574;BME280;2563;52.242;7.956;2023-01-23T01:52:02;98739.75;;;1.69;100.00
5574;BME280;2563;52.242;7.956;2023-01-23T01:57:10;98739.75;;;1.69;100.00
5574;BME280;2563;52.242;7.956;2023-01-23T01:59:48;98741.44;;;1.69;100.00
5574;BME280;2563;52.242;7.956;2023-01-23T02:02:22;98749.88;;;1.71;100.00
5574;BME280;2563;52.242;7.956;2023-01-23T02:04:50;98752.41;;;1.71;100.00
5574;BME280;2563;52.242;7.956;2023-01-23T02:07:31;98743.06;;;1.73;100.00
5574;BME280;2563;52.242;7.956;2023-01-23T02:09:59;98758.28;;;1.73;100.00
5574;BME280;2563;52.242;7.956;2023-01-23T02:12:26;98754.88;;;1.74;100.00
5574;BME280;2563;52.242;7.956;2023-01-23T02:14:52;98751.50;;;1.75;100.00
5574;BME280;2563;52.242;7.956;2023-01-23T02:17:18;98753.19;;;1.75;100.00
5574;BME280;2563;52.242;7.956;2023-01-23T02:20:02;98749.81;;;1.74;100.00
5574;BME280;2563;52.242;7.956;2023-01-23T02:22:43;98749.81;;;1.74;100.00
5574;BME280;2563;52.242;7.956;2023-01-23T02:27:43;98747.22;;;1.77;100.00
5574;BME280;2563;52.242;7.956;2023-01-23T02:30:08;98751.44;;;1.78;100.00
5574;BME280;2563;52.242;7.956;2023-01-23T02:32:35;98753.09;;;1.79;100.00
5574;BME280;2563;52.242;7.956;2023-01-23T02:35:07;98752.25;;;1.79;100.00
5574;BME280;2563;52.242;7.956;2023-01-23T02:37:36;98742.94;;;1.79;100.00
5574;BME280;2563;52.242;7.956;2023-01-23T02:40:02;98749.72;;;1.79;100.00
5574;BME280;2563;52.242;7.956;2023-01-23T02:42:29;98748.03;;;1.79;100.00
5574;BME280;2563;52.242;7.956;2023-01-23T02:44:55;98753.97;;;1.80;100.00
5574;BME280;2563;52.242;7.956;2023-01-23T02:47:22;98745.50;;;1.79;100.00
5574;BME280;2563;52.242;7.956;2023-01-23T02:49:48;98748.03;;;1.79;100.00
5574;BME280;2563;52.242;7.956;2023-01-23T02:52:13;98742.13;;;1.79;100.00
5574;BME280;2563;52.242;7.956;2023-01-23T02:54:39;98723.53;;;1.80;100.00
5574;BME280;2563;52.242;7.956;2023-01-23T02:57:05;98737.88;;;1.79;100.00
5574;BME280;2563;52.242;7.956;2023-01-23T02:59:30;98731.16;;;1.78;100.00
5574;BME280;2563;52.242;7.956;2023-01-23T03:02:14;98727.72;;;1.79;100.00
5574;BME280;2563;52.242;7.956;2023-01-23T03:04:40;98726.06;;;1.78;100.00
5574;BME280;2563;52.242;7.956;2023-01-23T03:07:05;98728.63;;;1.77;100.00
5574;BME280;2563;52.242;7.956;2023-01-23T03:09:31;98733.69;;;1.78;100.00
5574;BME280;2563;52.242;7.956;2023-01-23T03:11:57;98734.53;;;1.77;100.00
5574;BME280;2563;52.242;7.956;2023-01-23T03:14:23;98734.50;;;1.79;100.00
5574;BME280;2563;52.242;7.956;2023-01-23T03:16:49;98742.13;;;1.77;100.00
5574;BME280;2563;52.242;7.956;2023-01-23T03:19:16;98738.78;;;1.77;100.00
5574;BME280;2563;52.242;7.956;2023-01-23T03:21:42;98737.06;;;1.77;100.00
5574;BME280;2563;52.242;7.956;2023-01-23T03:24:09;98748.03;;;1.79;100.00
5574;BME280;2563;52.242;7.956;2023-01-23T03:26:39;98754.78;;;1.80;100.00
5574;BME280;2563;52.242;7.956;2023-01-23T03:29:05;98760.72;;;1.79;100.00
5574;BME280;2563;52.242;7.956;2023-01-23T03:31:49;98759.84;;;1.80;100.00
5574;BME280;2563;52.242;7.956;2023-01-23T03:34:15;98770.00;;;1.80;100.00
5574;BME280;2563;52.242;7.956;2023-01-23T03:36:42;98770.00;;;1.80;100.00
5574;BME280;2563;52.242;7.956;2023-01-23T03:39:08;98784.38;;;1.80;100.00
5574;BME280;2563;52.242;7.956;2023-01-23T03:41:52;98790.28;;;1.80;100.00
5574;BME280;2563;52.242;7.956;2023-01-23T03:44:18;98791.94;;;1.81;100.00
5574;BME280;2563;52.242;7.956;2023-01-23T03:46:48;98784.38;;;1.80;100.00
5574;BME280;2563;52.242;7.956;2023-01-23T03:49:15;98786.06;;;1.81;100.00
5574;BME280;2563;52.242;7.956;2023-01-23T03:51:40;98781.88;;;1.78;100.00
5574;BME280;2563;52.242;7.956;2023-01-23T03:54:06;98790.31;;;1.77;100.00
5574;BME280;2563;52.242;7.956;2023-01-23T03:56:31;98797.94;;;1.77;100.00
5574;BME280;2563;52.242;7.956;2023-01-23T03:58:56;98799.63;;;1.77;100.00
5574;BME280;2563;52.242;7.956;2023-01-23T04:01:23;98797.16;;;1.75;100.00
5574;BME280;2563;52.242;7.956;2023-01-23T04:03:49;98795.47;;;1.74;100.00
5574;BME280;2563;52.242;7.956;2023-01-23T04:06:15;98806.44;;;1.75;100.00
5574;BME280;2563;52.242;7.956;2023-01-23T04:08:40;98810.66;;;1.74;100.00
5574;BME280;2563;52.242;7.956;2023-01-23T04:11:07;98808.13;;;1.74;100.00
5574;BME280;2563;52.242;7.956;2023-01-23T04:13:34;98819.16;;;1.73;100.00
5574;BME280;2563;52.242;7.956;2023-01-23T04:15:59;98814.09;;;1.73;100.00
5574;BME280;2563;52.242;7.956;2023-01-23T04:18:25;98823.34;;;1.74;100.00
5574;BME280;2563;52.242;7.956;2023-01-23T04:20:51;98824.22;;;1.73;100.00
5574;BME280;2563;52.242;7.956;2023-01-23T04:23:17;98828.47;;;1.71;100.00
5574;BME280;2563;52.242;7.956;2023-01-23T04:25:42;98827.59;;;1.72;100.00
5574;BME280;2563;52.242;7.956;2023-01-23T04:28:08;98834.38;;;1.73;100.00
5574;BME280;2563;52.242;7.956;2023-01-23T04:30:33;98838.56;;;1.74;100.00
5574;BME280;2563;52.242;7.956;2023-01-23T04:32:59;98840.28;;;1.74;100.00
5574;BME280;2563;52.242;7.956;2023-01-23T04:35:24;98842.81;;;1.72;100.00
5574;BME280;2563;52.242;7.956;2023-01-23T04:37:49;98835.19;;;1.74;100.00
5574;BME280;2563;52.242;7.956;2023-01-23T04:40:15;98844.50;;;1.73;100.00
5574;BME280;2563;52.242;7.956;2023-01-23T04:42:40;98840.28;;;1.74;100.00
5574;BME280;2563;52.242;7.956;2023-01-23T04:45:07;98846.22;;;1.73;100.00
5574;BME280;2563;52.242;7.956;2023-01-23T04:47:33;98850.44;;;1.72;100.00
5574;BME280;2563;52.242;7.956;2023-01-23T04:49:58;98852.13;;;1.72;100.00
5574;BME280;2563;52.242;7.956;2023-01-23T04:52:24;98852.13;;;1.72;100.00
5574;BME280;2563;52.242;7.956;2023-01-23T04:54:49;98857.22;;;1.72;100.00
5574;BME280;2563;52.242;7.956;2023-01-23T04:57:14;98868.19;;;1.72;100.00
5574;BME280;2563;52.242;7.956;2023-01-23T04:59:40;98872.44;;;1.72;100.00
5574;BME280;2563;52.242;7.956;2023-01-23T05:02:05;98871.59;;;1.71;100.00
5574;BME280;2563;52.242;7.956;2023-01-23T05:04:31;98873.25;;;1.72;100.00
5574;BME280;2563;52.242;7.956;2023-01-23T05:06:56;98874.13;;;1.71;100.00
5574;BME280;2563;52.242;7.956;2023-01-23T05:09:21;98863.97;;;1.71;100.00
5574;BME280;2563;52.242;7.956;2023-01-23T05:11:47;98869.06;;;1.71;100.00
5574;BME280;2563;52.242;7.956;2023-01-23T05:14:12;98873.31;;;1.69;100.00
5574;BME280;2563;52.242;7.956;2023-01-23T05:16:38;98880.91;;;1.70;100.00
5574;BME280;2563;52.242;7.956;2023-01-23T05:19:04;98887.63;;;1.72;100.00
5574;BME280;2563;52.242;7.956;2023-01-23T05:21:29;98893.53;;;1.72;100.00
5574;BME280;2563;52.242;7.956;2023-01-23T05:23:55;98902.84;;;1.72;100.00
5574;BME280;2563;52.242;7.956;2023-01-23T05:26:20;98904.56;;;1.73;100.00
5574;BME280;2563;52.242;7.956;2023-01-23T05:28:45;98906.22;;;1.72;100.00
5574;BME280;2563;52.242;7.956;2023-01-23T05:31:11;98909.63;;;1.73;100.00
5574;BME280;2563;52.242;7.956;2023-01-23T05:33:36;98912.13;;;1.74;100.00
5574;BME280;2563;52.242;7.956;2023-01-23T05:36:03;98918.88;;;1.75;100.00
5574;BME280;2563;52.242;7.956;2023-01-23T05:38:29;98929.03;;;1.75;100.00
5574;BME280;2563;52.242;7.956;2023-01-23T05:40:55;98919.72;;;1.74;100.00
5574;BME280;2563;52.242;7.956;2023-01-23T05:43:20;98932.41;;;1.74;100.00
5574;BME280;2563;52.242;7.956;2023-01-23T05:45:46;98940.84;;;1.75;100.00
5574;BME280;2563;52.242;7.956;2023-01-23T05:48:11;98940.00;;;1.76;100.00
5574;BME280;2563;52.242;7.956;2023-01-23T05:50:36;98939.16;;;1.75;100.00
5574;BME280;2563;52.242;7.956;2023-01-23T05:53:02;98943.38;;;1.76;100.00
5574;BME280;2563;52.242;7.956;2023-01-23T05:55:28;98942.50;;;1.77;100.00
5574;BME280;2563;52.242;7.956;2023-01-23T05:57:53;98952.63;;;1.77;100.00
5574;BME280;2563;52.242;7.956;2023-01-23T06:00:19;98951.81;;;1.78;100.00
5574;BME280;2563;52.242;7.956;2023-01-23T06:02:44;98955.19;;;1.77;100.00
5574;BME280;2563;52.242;7.956;2023-01-23T06:05:11;98951.81;;;1.78;100.00
5574;BME280;2563;52.242;7.956;2023-01-23T06:07:37;98954.34;;;1.78;100.00
5574;BME280;2563;52.242;7.956;2023-01-23T06:10:03;98964.47;;;1.78;100.00
5574;BME280;2563;52.242;7.956;2023-01-23T06:12:29;98970.38;;;1.80;100.00
5574;BME280;2563;52.242;7.956;2023-01-23T06:14:54;98961.06;;;1.79;100.00
5574;BME280;2563;52.242;7.956;2023-01-23T06:17:19;98956.88;;;1.78;100.00
5574;BME280;2563;52.242;7.956;2023-01-23T06:19:46;98968.69;;;1.79;100.00
5574;BME280;2563;52.242;7.956;2023-01-23T06:22:11;98966.16;;;1.79;100.00
5574;BME280;2563;52.242;7.956;2023-01-23T06:24:37;98976.28;;;1.79;100.00
5574;BME280;2563;52.242;7.956;2023-01-23T06:27:03;98977.97;;;1.80;100.00
5574;BME280;2563;52.242;7.956;2023-01-23T06:29:33;98972.09;;;1.78;100.00
5574;BME280;2563;52.242;7.956;2023-01-23T06:32:00;98972.91;;;1.80;100.00
5574;BME280;2563;52.242;7.956;2023-01-23T06:34:25;98971.22;;;1.79;100.00
5574;BME280;2563;52.242;7.956;2023-01-23T06:36:50;98988.13;;;1.80;100.00
5574;BME280;2563;52.242;7.956;2023-01-23T06:39:16;98991.47;;;1.82;100.00
5574;BME280;2563;52.242;7.956;2023-01-23T06:41:41;98993.16;;;1.83;100.00
5574;BME280;2563;52.242;7.956;2023-01-23T06:44:07;99006.69;;;1.82;100.00
5574;BME280;2563;52.242;7.956;2023-01-23T06:46:33;99019.38;;;1.82;100.00
5574;BME280;2563;52.242;7.956;2023-01-23T06:48:58;99024.47;;;1.82;100.00
5574;BME280;2563;52.242;7.956;2023-01-23T06:51:24;99027.81;;;1.83;100.00
5574;BME280;2563;52.242;7.956;2023-01-23T06:53:49;99031.19;;;1.83;100.00
5574;BME280;2563;52.242;7.956;2023-01-23T06:56:14;99030.31;;;1.84;100.00
5574;BME280;2563;52.242;7.956;2023-01-23T06:58:43;99036.22;;;1.86;100.00
5574;BME280;2563;52.242;7.956;2023-01-23T07:01:15;98906.84;;;1.86;100.00
5574;BME280;2563;52.242;7.956;2023-01-23T07:03:41;98869.69;;;1.85;100.00
5574;BME280;2563;52.242;7.956;2023-01-23T07:06:09;98923.78;;;1.84;100.00
5574;BME280;2563;52.242;7.956;2023-01-23T07:08:35;98963.53;;;1.85;100.00
5574;BME280;2563;52.242;7.956;2023-01-23T07:11:01;98971.97;;;1.84;100.00
5574;BME280;2563;52.242;7.956;2023-01-23T07:13:27;98997.34;;;1.86;100.00
5574;BME280;2563;52.242;7.956;2023-01-23T07:15:53;99006.66;;;1.85;100.00
5574;BME280;2563;52.242;7.956;2023-01-23T07:18:18;99028.59;;;1.86;100.00
5574;BME280;2563;52.242;7.956;2023-01-23T07:20:44;99032.84;;;1.86;100.00
5574;BME280;2563;52.242;7.956;2023-01-23T07:23:10;99037.91;;;1.86;100.00
5574;BME280;2563;52.242;7.956;2023-01-23T07:25:36;99043.00;;;1.87;100.00
5574;BME280;2563;52.242;7.956;2023-01-23T07:28:01;99046.34;;;1.88;100.00
5574;BME280;2563;52.242;7.956;2023-01-23T07:30:27;99048.06;;;1.87;100.00
5574;BME280;2563;52.242;7.956;2023-01-23T07:32:53;99049.78;;;1.87;100.00
5574;BME280;2563;52.242;7.956;2023-01-23T07:35:18;99053.97;;;1.86;100.00
5574;BME280;2563;52.242;7.956;2023-01-23T07:37:45;99053.09;;;1.89;100.00
5574;BME280;2563;52.242;7.956;2023-01-23T07:40:10;99054.81;;;1.88;100.00
5574;BME280;2563;52.242;7.956;2023-01-23T07:42:36;99064.09;;;1.89;100.00
5574;BME280;2563;52.242;7.956;2023-01-23T07:45:01;99069.97;;;1.91;100.00
5574;BME280;2563;52.242;7.956;2023-01-23T07:47:27;99074.22;;;1.92;100.00
5574;BME280;2563;52.242;7.956;2023-01-23T07:49:52;99084.34;;;1.94;100.00
5574;BME280;2563;52.242;7.956;2023-01-23T07:52:18;99080.94;;;1.94;100.00
5574;BME280;2563;52.242;7.956;2023-01-23T07:54:43;99091.09;;;1.94;100.00
5574;BME280;2563;52.242;7.956;2023-01-23T07:57:08;99086.84;;;1.97;100.00
5574;BME280;2563;52.242;7.956;2023-01-23T07:59:33;99102.88;;;1.98;100.00
5574;BME280;2563;52.242;7.956;2023-01-23T08:01:59;99095.28;;;1.99;100.00
5574;BME280;2563;52.242;7.956;2023-01-23T08:04:24;99106.25;;;2.00;100.00
5574;BME280;2563;52.242;7.956;2023-01-23T08:06:49;99111.38;;;1.97;100.00
5574;BME280;2563;52.242;7.956;2023-01-23T08:09:15;99118.97;;;1.97;100.00
5574;BME280;2563;52.242;7.956;2023-01-23T08:11:40;99121.53;;;1.97;100.00
5574;BME280;2563;52.242;7.956;2023-01-23T08:14:06;99124.88;;;1.97;100.00
5574;BME280;2563;52.242;7.956;2023-01-23T08:16:31;99129.91;;;2.00;100.00
5574;BME280;2563;52.242;7.956;2023-01-23T08:18:56;99130.81;;;1.98;100.00
5574;BME280;2563;52.242;7.956;2023-01-23T08:21:22;99133.34;;;1.98;100.00
5574;BME280;2563;52.242;7.956;2023-01-23T08:23:47;99141.78;;;2.00;100.00
5574;BME280;2563;52.242;7.956;2023-01-23T08:26:15;99138.41;;;1.98;100.00
5574;BME280;2563;52.242;7.956;2023-01-23T08:28:42;99142.63;;;1.99;100.00
5574;BME280;2563;52.242;7.956;2023-01-23T08:31:09;99148.56;;;1.98;100.00
5574;BME280;2563;52.242;7.956;2023-01-23T08:33:38;99152.75;;;2.00;100.00
5574;BME280;2563;52.242;7.956;2023-01-23T08:36:04;99156.16;;;1.99;100.00
5574;BME280;2563;52.242;7.956;2023-01-23T08:38:30;99162.06;;;2.01;100.00
5574;BME280;2563;52.242;7.956;2023-01-23T08:40:58;99165.34;;;2.08;100.00
5574;BME280;2563;52.242;7.956;2023-01-23T08:43:24;99167.06;;;2.06;100.00
5574;BME280;2563;52.242;7.956;2023-01-23T08:45:52;99180.66;;;2.02;100.00
5574;BME280;2563;52.242;7.956;2023-01-23T08:48:18;99181.50;;;2.02;100.00
5574;BME280;2563;52.242;7.956;2023-01-23T08:50:44;99185.72;;;2.02;100.00
5574;BME280;2563;52.242;7.956;2023-01-23T08:53:10;99184.81;;;2.06;100.00
5574;BME280;2563;52.242;7.956;2023-01-23T08:55:36;99190.72;;;2.08;100.00
5574;BME280;2563;52.242;7.956;2023-01-23T08:58:06;99188.19;;;2.08;100.00
5574;BME280;2563;52.242;7.956;2023-01-23T09:00:33;99189.06;;;2.07;100.00
5574;BME280;2563;52.242;7.956;2023-01-23T09:03:00;99192.38;;;2.10;100.00
5574;BME280;2563;52.242;7.956;2023-01-23T09:05:26;99183.88;;;2.16;100.00
5574;BME280;2563;52.242;7.956;2023-01-23T09:07:51;99176.22;;;2.18;100.00
5574;BME280;2563;52.242;7.956;2023-01-23T09:10:17;99190.63;;;2.17;100.00
5574;BME280;2563;52.242;7.956;2023-01-23T09:12:42;99192.31;;;2.18;100.00
5574;BME280;2563;52.242;7.956;2023-01-23T09:15:08;99191.50;;;2.16;100.00
5574;BME280;2563;52.242;7.956;2023-01-23T09:17:34;99194.91;;;2.13;100.00
5574;BME280;2563;52.242;7.956;2023-01-23T09:19:59;99187.25;;;2.18;100.00
5574;BME280;2563;52.242;7.956;2023-01-23T09:22:25;99190.56;;;2.23;100.00
5574;BME280;2563;52.242;7.956;2023-01-23T09:24:51;99183.72;;;2.28;100.00
5574;BME280;2563;52.242;7.956;2023-01-23T09:27:17;99174.34;;;2.35;100.00
5574;BME280;2563;52.242;7.956;2023-01-23T09:29:43;99180.31;;;2.29;100.00
5574;BME280;2563;52.242;7.956;2023-01-23T09:32:08;99176.88;;;2.33;100.00
5574;BME280;2563;52.242;7.956;2023-01-23T09:34:33;99181.06;;;2.36;100.00
5574;BME280;2563;52.242;7.956;2023-01-23T09:36:59;99182.00;;;2.30;100.00
5574;BME280;2563;52.242;7.956;2023-01-23T09:39:24;99194.72;;;2.27;100.00
5574;BME280;2563;52.242;7.956;2023-01-23T09:41:49;99194.69;;;2.29;100.00
5574;BME280;2563;52.242;7.956;2023-01-23T09:44:21;99196.34;;;2.33;100.00
5574;BME280;2563;52.242;7.956;2023-01-23T09:46:56;99189.63;;;2.30;100.00
5574;BME280;2563;52.242;7.956;2023-01-23T09:52:04;99198.00;;;2.36;100.00
5574;BME280;2563;52.242;7.956;2023-01-23T09:57:05;99178.47;;;2.41;100.00
5574;BME280;2563;52.242;7.956;2023-01-23T09:59:37;99160.72;;;2.39;100.00
5574;BME280;2563;52.242;7.956;2023-01-23T10:02:18;99166.50;;;2.49;100.00
5574;BME280;2563;52.242;7.956;2023-01-23T10:04:51;99156.22;;;2.58;100.00
5574;BME280;2563;52.242;7.956;2023-01-23T10:10:19;99151.28;;;2.49;100.00
5574;BME280;2563;52.242;7.956;2023-01-23T10:12:57;99148.72;;;2.49;100.00
5574;BME280;2563;52.242;7.956;2023-01-23T10:18:34;99153.84;;;2.47;100.00
5574;BME280;2563;52.242;7.956;2023-01-23T10:21:09;99151.25;;;2.52;100.00
5574;BME280;2563;52.242;7.956;2023-01-23T10:24:04;99142.81;;;2.50;100.00
5574;BME280;2563;52.242;7.956;2023-01-23T10:26:39;99135.19;;;2.48;100.00
5574;BME280;2563;52.242;7.956;2023-01-23T10:31:52;99144.59;;;2.42;100.00
5574;BME280;2563;52.242;7.956;2023-01-23T10:42:26;99100.31;;;2.61;100.00
5574;BME280;2563;52.242;7.956;2023-01-23T10:44:51;99102.75;;;2.69;100.00
5574;BME280;2563;52.242;7.956;2023-01-23T10:47:33;99091.75;;;2.68;100.00
5574;BME280;2563;52.242;7.956;2023-01-23T10:49:59;99092.66;;;2.63;100.00
5574;BME280;2563;52.242;7.956;2023-01-23T10:52:32;99070.53;;;2.71;100.00
5574;BME280;2563;52.242;7.956;2023-01-23T10:54:57;99070.50;;;2.72;100.00
5574;BME280;2563;52.242;7.956;2023-01-23T10:57:25;99062.03;;;2.72;100.00
5574;BME280;2563;52.242;7.956;2023-01-23T10:59:58;99037.38;;;2.79;100.00
5574;BME280;2563;52.242;7.956;2023-01-23T11:02:28;99034.91;;;2.74;100.00
5574;BME280;2563;52.242;7.956;2023-01-23T11:04:54;99023.84;;;2.76;100.00
5574;BME280;2563;52.242;7.956;2023-01-23T11:07:26;99013.78;;;2.70;100.00
5574;BME280;2563;52.242;7.956;2023-01-23T11:12:26;98983.22;;;2.76;100.00
5574;BME280;2563;52.242;7.956;2023-01-23T11:15:28;98974.72;;;2.77;100.00
5574;BME280;2563;52.242;7.956;2023-01-23T11:17:56;98966.25;;;2.79;100.00
5574;BME280;2563;52.242;7.956;2023-01-23T11:25:40;98947.56;;;2.83;100.00
5574;BME280;2563;52.242;7.956;2023-01-23T11:28:25;98935.59;;;2.88;100.00
5574;BME280;2563;52.242;7.956;2023-01-23T11:31:11;98935.59;;;2.88;100.00
5574;BME280;2563;52.242;7.956;2023-01-23T11:33:53;98914.41;;;2.87;100.00
5574;BME280;2563;52.242;7.956;2023-01-23T11:41:42;98899.16;;;2.87;100.00
5574;BME280;2563;52.242;7.956;2023-01-23T11:44:15;98891.59;;;2.86;100.00
5574;BME280;2563;52.242;7.956;2023-01-23T11:49:47;98876.28;;;2.89;100.00
5574;BME280;2563;52.242;7.956;2023-01-23T11:52:49;98873.72;;;2.90;100.00
5574;BME280;2563;52.242;7.956;2023-01-23T12:11:31;98836.91;;;3.08;100.00
5574;BME280;2563;52.242;7.956;2023-01-23T12:14:08;98822.53;;;3.07;100.00
5574;BME280;2563;52.242;7.956;2023-01-23T12:16:43;98807.03;;;3.18;100.00
5574;BME280;2563;52.242;7.956;2023-01-23T12:37:56;98734.94;;;3.20;100.00
5574;BME280;2563;52.242;7.956;2023-01-23T12:40:32;98705.97;;;3.28;100.00
5574;BME280;2563;52.242;7.956;2023-01-23T12:43:10;98665.47;;;3.22;100.00
5574;BME280;2563;52.242;7.956;2023-01-23T12:45:43;98657.03;;;3.19;100.00
5574;BME280;2563;52.242;7.956;2023-01-23T12:48:30;98640.28;;;3.11;100.00
5574;BME280;2563;52.242;7.956;2023-01-23T12:51:01;98631.75;;;3.13;100.00
5574;BME280;2563;52.242;7.956;2023-01-23T12:53:33;98615.41;;;3.24;100.00
5574;BME280;2563;52.242;7.956;2023-01-23T12:56:12;98598.44;;;3.26;100.00
5574;BME280;2563;52.242;7.956;2023-01-23T12:58:50;98595.41;;;3.11;100.00
5574;BME280;2563;52.242;7.956;2023-01-23T13:06:40;98601.50;;;3.04;100.00
5574;BME280;2563;52.242;7.956;2023-01-23T13:14:38;98608.47;;;2.96;100.00
5574;BME280;2563;52.242;7.956;2023-01-23T13:17:27;98612.53;;;3.03;100.00
5574;BME280;2563;52.242;7.956;2023-01-23T13:20:32;98610.88;;;3.02;100.00
5574;BME280;2563;52.242;7.956;2023-01-23T13:28:57;98618.56;;;2.99;100.00
5574;BME280;2563;52.242;7.956;2023-01-23T13:33:58;98629.69;;;2.95;100.00
5574;BME280;2563;52.242;7.956;2023-01-23T13:36:29;98638.66;;;3.08;100.00
5574;BME280;2563;52.242;7.956;2023-01-23T13:41:31;98658.25;;;3.05;100.00
5574;BME280;2563;52.242;7.956;2023-01-23T13:52:41;98688.63;;;3.09;100.00
5574;BME280;2563;52.242;7.956;2023-01-23T13:55:40;98691.19;;;3.09;100.00
5574;BME280;2563;52.242;7.956;2023-01-23T13:58:27;98704.00;;;3.05;100.00
5574;BME280;2563;52.242;7.956;2023-01-23T14:03:40;98741.41;;;2.98;100.00
5574;BME280;2563;52.242;7.956;2023-01-23T14:06:34;98744.75;;;3.00;100.00
5574;BME280;2563;52.242;7.956;2023-01-23T14:09:00;98766.91;;;2.95;100.00
5574;BME280;2563;52.242;7.956;2023-01-23T14:11:34;98765.94;;;2.99;100.00
5574;BME280;2563;52.242;7.956;2023-01-23T14:14:01;98773.63;;;2.96;100.00
5574;BME280;2563;52.242;7.956;2023-01-23T14:16:47;98768.38;;;3.04;100.00
5574;BME280;2563;52.242;7.956;2023-01-23T14:19:27;98774.28;;;3.06;100.00
5574;BME280;2563;52.242;7.956;2023-01-23T14:21:55;98773.41;;;3.07;100.00
5574;BME280;2563;52.242;7.956;2023-01-23T14:24:26;98776.88;;;3.03;100.00
5574;BME280;2563;52.242;7.956;2023-01-23T14:26:59;98788.81;;;2.99;100.00
5574;BME280;2563;52.242;7.956;2023-01-23T14:29:26;98795.69;;;2.94;100.00
5574;BME280;2563;52.242;7.956;2023-01-23T14:31:52;98803.47;;;2.88;100.00
5574;BME280;2563;52.242;7.956;2023-01-23T14:34:19;98805.13;;;2.89;100.00
5574;BME280;2563;52.242;7.956;2023-01-23T14:36:49;98810.13;;;2.92;100.00
5574;BME280;2563;52.242;7.956;2023-01-23T14:39:21;98807.56;;;2.95;100.00
5574;BME280;2563;52.242;7.956;2023-01-23T14:41:48;98815.19;;;2.95;100.00
5574;BME280;2563;52.242;7.956;2023-01-23T14:44:20;98818.56;;;2.94;100.00
5574;BME280;2563;52.242;7.956;2023-01-23T14:46:50;98833.06;;;2.90;100.00
5574;BME280;2563;52.242;7.956;2023-01-23T14:49:25;98838.13;;;2.90;100.00
5574;BME280;2563;52.242;7.956;2023-01-23T14:52:02;98847.34;;;2.96;100.00
5574;BME280;2563;52.242;7.956;2023-01-23T14:54:28;98866.03;;;2.92;100.00
5574;BME280;2563;52.242;7.956;2023-01-23T14:56:55;98874.47;;;2.94;100.00
5574;BME280;2563;52.242;7.956;2023-01-23T15:01:58;98911.66;;;3.00;100.00
5574;BME280;2563;52.242;7.956;2023-01-23T15:04:26;98923.56;;;2.96;100.00
5574;BME280;2563;52.242;7.956;2023-01-23T15:06:57;98950.69;;;2.94;100.00
5574;BME280;2563;52.242;7.956;2023-01-23T15:09:30;98977.88;;;2.90;100.00
5574;BME280;2563;52.242;7.956;2023-01-23T15:12:04;98993.22;;;2.84;100.00
5574;BME280;2563;52.242;7.956;2023-01-23T15:14:35;99004.22;;;2.85;100.00
5574;BME280;2563;52.242;7.956;2023-01-23T15:17:02;99022.06;;;2.82;100.00
5574;BME280;2563;52.242;7.956;2023-01-23T15:19:29;99031.38;;;2.83;100.00
5574;BME280;2563;52.242;7.956;2023-01-23T15:22:18;99034.75;;;2.83;100.00
5574;BME280;2563;52.242;7.956;2023-01-23T15:24:44;99032.22;;;2.82;100.00